Time;durP1;ratioP1;P1;durP2;ratioP2;P2;SDS_P1;SDS_P2;PMS_P1;PMS_P2;Temp;Humidity;BMP_temperature;BMP_pressure;BME280_temperature;BME280_humidity;BME280_pressure;Samples;Min_cycle;Max_cycle;Signal;HPM_P1;HPM_P2
2022/06/06 00:01:43;;;;;;;2.53;2.30;;;;;;;;;;5097463;28;20203;-65
2022/06/06 00:04:11;;;;;;;1.90;1.80;;;;;;;;;;5097112;28;20265;-65
2022/06/06 00:06:39;;;;;;;3.00;2.27;;;;;;;;;;5097055;28;20707;-65
2022/06/06 00:09:07;;;;;;;4.30;2.27;;;;;;;;;;5097316;28;20212;-65
2022/06/06 00:11:37;;;;;;;7.60;2.57;;;;;;;;;;5097283;28;20265;-65
2022/06/06 00:14:06;;;;;;;3.63;2.10;;;;;;;;;;5097360;28;20238;-66
2022/06/06 00:16:35;;;;;;;3.13;2.43;;;;;;;;;;5097376;28;20251;-65
2022/06/06 00:19:08;;;;;;;2.50;2.30;;;;;;;;;;5097362;28;20202;-65
2022/06/06 00:21:36;;;;;;;3.97;2.53;;;;;;;;;;5096923;28;20690;-65
2022/06/06 00:24:04;;;;;;;2.63;2.20;;;;;;;;;;5097062;28;20286;-65
2022/06/06 00:26:33;;;;;;;2.60;2.40;;;;;;;;;;5097305;28;20222;-65
2022/06/06 00:29:03;;;;;;;3.27;2.10;;;;;;;;;;5097100;28;20207;-65
2022/06/06 00:37:04;;;;;;;3.53;2.23;;;;;;;;;;5097122;28;20234;-65
2022/06/06 00:39:32;;;;;;;3.13;2.40;;;;;;;;;;5096858;28;20670;-65
2022/06/06 00:42:00;;;;;;;4.33;2.60;;;;;;;;;;5098616;28;20251;-65
2022/06/06 00:44:31;;;;;;;3.17;2.40;;;;;;;;;;5100643;28;20320;-65
2022/06/06 00:47:03;;;;;;;2.60;2.43;;;;;;;;;;5100881;28;20221;-67
2022/06/06 00:49:34;;;;;;;3.83;2.73;;;;;;;;;;5100606;28;20295;-65
2022/06/06 00:52:05;;;;;;;3.47;2.57;;;;;;;;;;5100802;28;20205;-65
2022/06/06 00:54:33;;;;;;;3.17;2.37;;;;;;;;;;5100713;28;20204;-65
2022/06/06 00:57:03;;;;;;;9.33;2.57;;;;;;;;;;5100679;28;20232;-65
2022/06/06 00:59:35;;;;;;;5.10;2.67;;;;;;;;;;5100708;28;20242;-65
2022/06/06 01:02:03;;;;;;;3.23;2.67;;;;;;;;;;5100415;28;20630;-65
2022/06/06 01:04:32;;;;;;;4.73;2.97;;;;;;;;;;5099812;28;20228;-64
2022/06/06 01:07:00;;;;;;;3.53;2.80;;;;;;;;;;5100457;28;20234;-65
2022/06/06 01:09:29;;;;;;;4.40;2.73;;;;;;;;;;5100299;28;20210;-64
2022/06/06 01:11:59;;;;;;;3.17;2.40;;;;;;;;;;5100215;28;20212;-66
2022/06/06 01:14:29;;;;;;;5.60;2.37;;;;;;;;;;5100264;28;20235;-65
2022/06/06 01:17:01;;;;;;;3.03;2.47;;;;;;;;;;5100207;28;20249;-65
2022/06/06 01:19:50;;;;;;;3.13;2.70;;;;;;;;;;5092657;28;20692;-65
2022/06/06 01:22:31;;;;;;;3.70;2.70;;;;;;;;;;5100083;28;20202;-65
2022/06/06 01:25:14;;;;;;;2.90;2.60;;;;;;;;;;5099836;28;20220;-65
2022/06/06 01:27:48;;;;;;;4.57;2.93;;;;;;;;;;5099987;28;20672;-65
2022/06/06 01:30:19;;;;;;;2.80;2.50;;;;;;;;;;5099942;28;20225;-65
2022/06/06 01:32:49;;;;;;;2.37;2.10;;;;;;;;;;5100061;28;20241;-65
2022/06/06 01:35:22;;;;;;;3.43;2.67;;;;;;;;;;5099169;28;20206;-65
2022/06/06 01:37:50;;;;;;;3.03;2.73;;;;;;;;;;5099655;28;20209;-65
2022/06/06 01:40:19;;;;;;;2.70;2.50;;;;;;;;;;5098908;28;20209;-65
2022/06/06 01:42:50;;;;;;;6.73;2.20;;;;;;;;;;5099921;28;20259;-65
2022/06/06 01:45:23;;;;;;;4.03;2.33;;;;;;;;;;5099532;28;20221;-65
2022/06/06 01:47:52;;;;;;;2.60;2.40;;;;;;;;;;5099371;28;20243;-65
2022/06/06 01:50:21;;;;;;;7.37;2.60;;;;;;;;;;5099300;28;20263;-65
2022/06/06 01:52:50;;;;;;;4.00;2.37;;;;;;;;;;5098386;28;20270;-65
2022/06/06 01:55:19;;;;;;;2.63;2.43;;;;;;;;;;5099347;28;20746;-66
2022/06/06 01:57:47;;;;;;;4.07;2.57;;;;;;;;;;5099332;28;20653;-66
2022/06/06 02:00:16;;;;;;;3.97;2.20;;;;;;;;;;5099311;28;20572;-66
2022/06/06 02:02:46;;;;;;;3.13;2.60;;;;;;;;;;5099337;28;20231;-65
2022/06/06 02:05:14;;;;;;;2.83;2.33;;;;;;;;;;5098970;28;20325;-65
2022/06/06 02:07:43;;;;;;;5.73;2.33;;;;;;;;;;5099012;28;20300;-65
2022/06/06 02:10:12;;;;;;;2.40;2.20;;;;;;;;;;5099474;28;20260;-65
2022/06/06 02:12:41;;;;;;;6.20;2.97;;;;;;;;;;5099117;28;20260;-66
2022/06/06 02:15:10;;;;;;;4.27;2.57;;;;;;;;;;5099136;28;20240;-66
2022/06/06 02:17:38;;;;;;;3.27;2.67;;;;;;;;;;5098954;28;20253;-65
2022/06/06 02:20:09;;;;;;;2.60;2.40;;;;;;;;;;5098992;28;20205;-66
2022/06/06 02:22:37;;;;;;;3.60;2.80;;;;;;;;;;5099013;28;20210;-66
2022/06/06 02:25:06;;;;;;;3.13;2.57;;;;;;;;;;5098749;28;20270;-65
2022/06/06 02:27:34;;;;;;;2.97;2.57;;;;;;;;;;5098783;28;20642;-65
2022/06/06 02:30:03;;;;;;;6.17;2.60;;;;;;;;;;5098951;28;20243;-65
2022/06/06 02:32:31;;;;;;;2.57;2.37;;;;;;;;;;5099039;28;20206;-65
2022/06/06 02:34:59;;;;;;;3.07;2.60;;;;;;;;;;5098574;28;20201;-65
2022/06/06 02:37:29;;;;;;;2.73;2.53;;;;;;;;;;5098460;28;20602;-65
2022/06/06 02:39:57;;;;;;;3.03;2.70;;;;;;;;;;5096935;28;20212;-65
2022/06/06 02:42:25;;;;;;;3.93;2.40;;;;;;;;;;5098742;28;20209;-65
2022/06/06 02:44:53;;;;;;;2.80;2.60;;;;;;;;;;5098359;28;20670;-65
2022/06/06 02:47:21;;;;;;;4.27;2.80;;;;;;;;;;5098555;28;20264;-65
2022/06/06 02:49:49;;;;;;;2.67;2.47;;;;;;;;;;5097934;28;20582;-65
2022/06/06 02:52:17;;;;;;;2.70;2.50;;;;;;;;;;5098519;28;20240;-65
2022/06/06 02:54:46;;;;;;;3.37;2.77;;;;;;;;;;5098347;28;20230;-66
2022/06/06 02:57:14;;;;;;;3.10;2.80;;;;;;;;;;5098478;28;20229;-65
2022/06/06 02:59:43;;;;;;;2.43;2.23;;;;;;;;;;5098167;28;20248;-65
2022/06/06 03:02:11;;;;;;;2.43;2.30;;;;;;;;;;5098146;28;20669;-65
2022/06/06 03:04:39;;;;;;;2.30;2.20;;;;;;;;;;5097741;28;20229;-65
2022/06/06 03:07:11;;;;;;;2.57;2.37;;;;;;;;;;5097943;28;20648;-65
2022/06/06 03:09:42;;;;;;;2.40;2.20;;;;;;;;;;5097765;28;20259;-65
2022/06/06 03:12:19;;;;;;;2.57;2.37;;;;;;;;;;5097992;28;20250;-65
2022/06/06 03:14:56;;;;;;;4.07;2.40;;;;;;;;;;5098006;28;20212;-65
2022/06/06 03:23:11;;;;;;;3.10;2.80;;;;;;;;;;5097876;28;20217;-65
2022/06/06 03:25:43;;;;;;;2.93;2.37;;;;;;;;;;5097951;28;20254;-65
2022/06/06 03:28:17;;;;;;;2.47;2.30;;;;;;;;;;5097989;28;20210;-66
2022/06/06 03:31:00;;;;;;;4.37;2.50;;;;;;;;;;5097775;28;20667;-65
2022/06/06 03:33:32;;;;;;;4.17;2.73;;;;;;;;;;5097698;28;20251;-66
2022/06/06 03:36:03;;;;;;;4.03;2.40;;;;;;;;;;5097367;28;20687;-66
2022/06/06 03:38:36;;;;;;;2.73;2.50;;;;;;;;;;5097594;28;20213;-66
2022/06/06 03:41:07;;;;;;;4.00;2.60;;;;;;;;;;5096278;28;20207;-66
2022/06/06 03:43:40;;;;;;;2.47;2.27;;;;;;;;;;5097984;28;20213;-66
2022/06/06 03:46:17;;;;;;;3.57;2.33;;;;;;;;;;5097429;28;20602;-66
2022/06/06 03:48:51;;;;;;;3.07;2.87;;;;;;;;;;5097645;28;20287;-66
2022/06/06 03:51:27;;;;;;;3.23;2.70;;;;;;;;;;5097605;28;20215;-66
2022/06/06 03:54:01;;;;;;;4.10;2.73;;;;;;;;;;5097469;28;20212;-66
2022/06/06 03:56:37;;;;;;;5.60;3.17;;;;;;;;;;5097660;28;20227;-65
2022/06/06 03:59:08;;;;;;;4.27;2.70;;;;;;;;;;5097468;28;20203;-66
2022/06/06 04:01:38;;;;;;;3.27;2.97;;;;;;;;;;5097598;28;20208;-66
2022/06/06 04:04:06;;;;;;;3.83;3.37;;;;;;;;;;5097069;28;20204;-65
2022/06/06 04:06:35;;;;;;;3.90;3.07;;;;;;;;;;5097496;28;20271;-66
2022/06/06 04:09:03;;;;;;;3.67;3.10;;;;;;;;;;5097482;28;20208;-66
2022/06/06 04:11:40;;;;;;;5.97;3.20;;;;;;;;;;5102115;28;20195;-64
2022/06/06 04:14:16;;;;;;;5.23;3.17;;;;;;;;;;5106000;28;20605;-66
2022/06/06 04:16:50;;;;;;;3.33;2.93;;;;;;;;;;5096307;28;20216;-64
2022/06/06 04:19:26;;;;;;;5.00;3.47;;;;;;;;;;5104380;28;20203;-64
2022/06/06 04:21:57;;;;;;;2.73;2.47;;;;;;;;;;5100609;28;20630;-66
2022/06/06 04:24:39;;;;;;;3.43;3.10;;;;;;;;;;5098436;28;20220;-66
2022/06/06 04:27:12;;;;;;;4.87;3.33;;;;;;;;;;5100219;28;20275;-66
2022/06/06 04:29:46;;;;;;;4.10;3.27;;;;;;;;;;5101150;28;20330;-67
2022/06/06 04:32:17;;;;;;;3.17;2.87;;;;;;;;;;5101267;28;20209;-66
2022/06/06 04:34:50;;;;;;;3.70;2.70;;;;;;;;;;5100752;28;20230;-66
2022/06/06 04:37:22;;;;;;;2.83;2.53;;;;;;;;;;5098762;28;20215;-66
2022/06/06 04:39:53;;;;;;;3.47;2.40;;;;;;;;;;5099521;28;20235;-66
2022/06/06 04:42:25;;;;;;;3.73;2.67;;;;;;;;;;5101006;28;20216;-67
2022/06/06 04:44:57;;;;;;;4.33;2.80;;;;;;;;;;5101826;28;20229;-63
2022/06/06 04:47:29;;;;;;;3.33;2.87;;;;;;;;;;5100362;28;20728;-64
2022/06/06 04:49:58;;;;;;;4.07;2.27;;;;;;;;;;5101627;28;20707;-67
2022/06/06 04:52:26;;;;;;;2.80;2.60;;;;;;;;;;5097938;28;20197;-64
2022/06/06 04:54:55;;;;;;;2.80;2.40;;;;;;;;;;5099704;28;20562;-65
2022/06/06 04:57:24;;;;;;;6.40;2.87;;;;;;;;;;5110486;28;20221;-65
2022/06/06 04:59:52;;;;;;;4.23;2.60;;;;;;;;;;5100611;28;20211;-66
2022/06/06 05:02:22;;;;;;;2.87;2.43;;;;;;;;;;5100198;28;20701;-65
2022/06/06 05:04:50;;;;;;;4.23;2.90;;;;;;;;;;5091638;28;20246;-65
2022/06/06 05:07:26;;;;;;;3.33;3.03;;;;;;;;;;5100035;28;20238;-65
2022/06/06 05:10:07;;;;;;;4.37;3.03;;;;;;;;;;5090653;28;20229;-67
2022/06/06 05:12:49;;;;;;;3.30;3.07;;;;;;;;;;5097266;28;20262;-65
2022/06/06 05:15:32;;;;;;;7.57;3.83;;;;;;;;;;5099750;28;20225;-65
2022/06/06 05:18:11;;;;;;;4.40;2.90;;;;;;;;;;5098766;28;20691;-65
2022/06/06 05:20:51;;;;;;;4.80;2.87;;;;;;;;;;5097361;28;20229;-65
2022/06/06 05:23:40;;;;;;;2.83;2.63;;;;;;;;;;5098621;28;20232;-65
2022/06/06 05:26:17;;;;;;;5.10;3.27;;;;;;;;;;5090779;28;20233;-65
2022/06/06 05:29:00;;;;;;;5.77;3.00;;;;;;;;;;5119683;28;20227;-65
2022/06/06 05:31:33;;;;;;;3.30;3.00;;;;;;;;;;5119987;28;20207;-65
2022/06/06 05:34:06;;;;;;;6.63;3.23;;;;;;;;;;5120165;28;20208;-64
2022/06/06 05:36:43;;;;;;;6.70;2.97;;;;;;;;;;5120040;28;20253;-66
2022/06/06 05:39:17;;;;;;;3.17;2.93;;;;;;;;;;5119866;27;20240;-66
2022/06/06 05:41:59;;;;;;;3.53;3.23;;;;;;;;;;5087444;28;20666;-66
2022/06/06 05:44:35;;;;;;;3.73;3.10;;;;;;;;;;5099333;28;20205;-66
2022/06/06 05:47:08;;;;;;;3.87;3.30;;;;;;;;;;5097760;28;20262;-66
2022/06/06 05:49:47;;;;;;;6.07;2.97;;;;;;;;;;5115117;28;20276;-64
2022/06/06 05:52:33;;;;;;;3.03;2.47;;;;;;;;;;5119394;28;20216;-64
2022/06/06 05:55:06;;;;;;;2.80;2.60;;;;;;;;;;5119345;28;20205;-65
2022/06/06 05:57:57;;;;;;;3.90;2.97;;;;;;;;;;5119723;28;20211;-64
2022/06/06 06:00:27;;;;;;;2.43;2.23;;;;;;;;;;5119256;28;20209;-65
2022/06/06 06:03:06;;;;;;;3.23;2.70;;;;;;;;;;5100402;28;20207;-66
2022/06/06 06:05:43;;;;;;;3.10;2.63;;;;;;;;;;5095838;28;20221;-66
2022/06/06 06:08:20;;;;;;;3.00;2.80;;;;;;;;;;5103036;28;20200;-66
2022/06/06 06:10:52;;;;;;;5.03;2.90;;;;;;;;;;5100932;28;20196;-66
2022/06/06 06:13:29;;;;;;;2.60;2.40;;;;;;;;;;5098780;28;20232;-66
2022/06/06 06:15:59;;;;;;;5.07;2.80;;;;;;;;;;5098055;28;20246;-66
2022/06/06 06:18:30;;;;;;;10.53;3.40;;;;;;;;;;5098449;28;20195;-67
2022/06/06 06:21:02;;;;;;;2.70;2.50;;;;;;;;;;5098321;28;20665;-66
2022/06/06 06:23:32;;;;;;;2.20;2.00;;;;;;;;;;5098474;28;20229;-64
2022/06/06 06:26:01;;;;;;;3.53;2.53;;;;;;;;;;5098556;28;20213;-64
2022/06/06 06:28:33;;;;;;;3.40;2.40;;;;;;;;;;5099470;28;20245;-64
2022/06/06 06:31:05;;;;;;;2.87;2.67;;;;;;;;;;5099283;28;20194;-64
2022/06/06 06:33:49;;;;;;;2.83;2.63;;;;;;;;;;5095839;28;20227;-64
2022/06/06 06:36:23;;;;;;;3.20;2.40;;;;;;;;;;5096337;28;20215;-64
2022/06/06 06:39:02;;;;;;;3.30;2.60;;;;;;;;;;5097370;28;20280;-68
2022/06/06 06:41:34;;;;;;;3.20;2.33;;;;;;;;;;5098663;28;20199;-69
2022/06/06 06:44:06;;;;;;;3.53;2.53;;;;;;;;;;5098729;28;20251;-69
2022/06/06 06:46:37;;;;;;;3.83;2.63;;;;;;;;;;5095295;28;20235;-68
2022/06/06 06:49:09;;;;;;;4.33;3.43;;;;;;;;;;5097398;28;20227;-68
2022/06/06 06:51:50;;;;;;;3.67;2.23;;;;;;;;;;5100060;28;20212;-68
2022/06/06 06:54:31;;;;;;;3.30;3.00;;;;;;;;;;5096872;28;20207;-67
2022/06/06 06:57:09;;;;;;;3.33;3.03;;;;;;;;;;5098060;28;20255;-67
2022/06/06 06:59:42;;;;;;;5.43;3.77;;;;;;;;;;5097364;28;20565;-67
2022/06/06 07:10:51;;;;;;;13.43;8.20;;;;;;;;;;5098842;28;20200;-67
2022/06/06 07:13:30;;;;;;;3.00;2.70;;;;;;;;;;5099151;28;20213;-67
2022/06/06 07:16:03;;;;;;;3.87;3.17;;;;;;;;;;5095926;28;20222;-67
2022/06/06 07:18:33;;;;;;;3.60;2.73;;;;;;;;;;5095327;28;20283;-68
2022/06/06 07:21:09;;;;;;;2.83;2.60;;;;;;;;;;5099485;28;20730;-68
2022/06/06 07:23:40;;;;;;;2.63;2.43;;;;;;;;;;5097182;28;20744;-67
2022/06/06 07:26:10;;;;;;;3.10;2.80;;;;;;;;;;5095156;28;20254;-67
2022/06/06 07:28:38;;;;;;;4.07;2.73;;;;;;;;;;5098562;28;20546;-67
2022/06/06 07:31:14;;;;;;;6.03;3.20;;;;;;;;;;5099386;28;20234;-67
2022/06/06 07:33:48;;;;;;;3.27;2.97;;;;;;;;;;5097056;28;20198;-67
2022/06/06 07:36:21;;;;;;;5.43;4.17;;;;;;;;;;5096143;28;20279;-66
2022/06/06 07:39:01;;;;;;;4.07;3.03;;;;;;;;;;5094536;28;20199;-66
2022/06/06 07:41:35;;;;;;;3.07;2.77;;;;;;;;;;5096276;28;20231;-66
2022/06/06 07:44:10;;;;;;;5.33;2.50;;;;;;;;;;5099470;28;20212;-66
2022/06/06 07:46:44;;;;;;;3.73;2.57;;;;;;;;;;5100456;28;20223;-66
2022/06/06 07:49:17;;;;;;;6.87;2.90;;;;;;;;;;5098553;28;20589;-67
2022/06/06 07:51:50;;;;;;;4.80;2.77;;;;;;;;;;5097950;28;20228;-67
2022/06/06 07:54:35;;;;;;;5.53;3.23;;;;;;;;;;5104452;28;20201;-67
2022/06/06 07:57:07;;;;;;;3.53;3.00;;;;;;;;;;5102852;28;20239;-69
2022/06/06 07:59:39;;;;;;;9.77;3.47;;;;;;;;;;5101517;28;20331;-63
2022/06/06 08:02:17;;;;;;;3.77;2.60;;;;;;;;;;5101265;28;20255;-63
2022/06/06 08:04:48;;;;;;;4.47;2.60;;;;;;;;;;5100865;28;20212;-66
2022/06/06 08:07:21;;;;;;;3.53;2.90;;;;;;;;;;5101038;28;20269;-66
2022/06/06 08:09:58;;;;;;;5.73;3.00;;;;;;;;;;5101054;28;20569;-66
2022/06/06 08:12:31;;;;;;;3.60;2.80;;;;;;;;;;5099048;28;20201;-65
2022/06/06 08:15:07;;;;;;;4.33;3.10;;;;;;;;;;5108261;28;20195;-66
2022/06/06 08:17:41;;;;;;;3.20;2.63;;;;;;;;;;5108782;28;20194;-67
2022/06/06 08:20:12;;;;;;;5.27;3.27;;;;;;;;;;5108307;28;20208;-66
2022/06/06 08:22:42;;;;;;;3.50;3.20;;;;;;;;;;5098166;28;20202;-66
2022/06/06 08:25:13;;;;;;;3.63;2.60;;;;;;;;;;5087747;28;20201;-65
2022/06/06 08:27:42;;;;;;;5.00;2.77;;;;;;;;;;5086255;28;20221;-65
2022/06/06 08:30:11;;;;;;;3.07;2.87;;;;;;;;;;5081734;28;20194;-65
2022/06/06 08:32:45;;;;;;;6.90;2.63;;;;;;;;;;5083000;28;20197;-66
2022/06/06 08:35:13;;;;;;;3.67;3.07;;;;;;;;;;5082374;28;20214;-65
2022/06/06 08:37:50;;;;;;;2.90;2.60;;;;;;;;;;5097740;28;20666;-66
2022/06/06 08:40:33;;;;;;;5.40;3.10;;;;;;;;;;5099016;28;20731;-67
2022/06/06 08:43:03;;;;;;;3.20;2.90;;;;;;;;;;5081810;28;20240;-67
2022/06/06 08:45:50;;;;;;;5.77;3.07;;;;;;;;;;5100115;28;20233;-66
2022/06/06 08:48:27;;;;;;;4.40;3.07;;;;;;;;;;5100153;28;20234;-66
2022/06/06 08:50:59;;;;;;;3.77;3.20;;;;;;;;;;5100206;28;20226;-69
2022/06/06 08:53:49;;;;;;;3.77;3.00;;;;;;;;;;5100599;28;20210;-69
2022/06/06 08:56:47;;;;;;;4.97;2.93;;;;;;;;;;5099756;28;20219;-66
2022/06/06 08:59:42;;;;;;;3.53;2.80;;;;;;;;;;5097643;28;20236;-66
2022/06/06 09:02:29;;;;;;;2.50;2.30;;;;;;;;;;5102354;28;20663;-67
2022/06/06 09:05:15;;;;;;;3.57;2.63;;;;;;;;;;5099430;28;20289;-69
2022/06/06 09:08:03;;;;;;;3.80;2.60;;;;;;;;;;5098697;28;20218;-69
2022/06/06 09:10:41;;;;;;;3.13;2.67;;;;;;;;;;5099498;28;20724;-70
2022/06/06 09:13:27;;;;;;;3.50;2.87;;;;;;;;;;5097266;28;20193;-71
2022/06/06 09:16:13;;;;;;;3.23;2.80;;;;;;;;;;5090917;28;20243;-71
2022/06/06 09:18:55;;;;;;;3.23;2.50;;;;;;;;;;5086471;28;20201;-71
2022/06/06 09:21:38;;;;;;;7.43;2.77;;;;;;;;;;5100016;28;20238;-71
2022/06/06 09:24:35;;;;;;;2.63;2.20;;;;;;;;;;5086728;28;20236;-70
2022/06/06 09:27:15;;;;;;;6.13;3.00;;;;;;;;;;5098398;28;20248;-71
2022/06/06 09:30:01;;;;;;;2.87;2.57;;;;;;;;;;5099596;28;20267;-74
2022/06/06 09:32:52;;;;;;;3.53;3.00;;;;;;;;;;5101090;28;20252;-75
2022/06/06 09:35:32;;;;;;;3.33;2.93;;;;;;;;;;5097987;28;20237;-77
2022/06/06 09:38:14;;;;;;;5.03;2.83;;;;;;;;;;5099475;28;20202;-77
2022/06/06 09:40:54;;;;;;;2.63;2.43;;;;;;;;;;5089720;28;20661;-75
2022/06/06 09:43:28;;;;;;;2.87;2.67;;;;;;;;;;5086429;28;20234;-77
2022/06/06 09:46:15;;;;;;;3.03;2.50;;;;;;;;;;5099482;28;20229;-76
2022/06/06 09:49:11;;;;;;;2.60;2.40;;;;;;;;;;5099051;28;20244;-77
2022/06/06 09:51:51;;;;;;;2.83;2.53;;;;;;;;;;5099373;28;20217;-77
2022/06/06 10:00:48;;;;;;;3.67;2.67;;;;;;;;;;5099321;28;20202;-76
2022/06/06 10:03:46;;;;;;;2.83;2.47;;;;;;;;;;5098729;28;20200;-76
2022/06/06 10:06:33;;;;;;;3.33;2.70;;;;;;;;;;5087174;28;20279;-76
2022/06/06 10:09:17;;;;;;;2.57;2.37;;;;;;;;;;5098537;28;20225;-76
2022/06/06 10:11:55;;;;;;;3.40;2.57;;;;;;;;;;5098898;28;20202;-76
2022/06/06 10:14:35;;;;;;;5.63;2.73;;;;;;;;;;5098047;28;20212;-76
2022/06/06 10:17:10;;;;;;;3.70;2.53;;;;;;;;;;5098771;28;20258;-76
2022/06/06 10:19:55;;;;;;;5.00;2.60;;;;;;;;;;5097882;28;20234;-76
2022/06/06 10:22:34;;;;;;;2.70;2.50;;;;;;;;;;5098805;28;20234;-75
2022/06/06 10:25:21;;;;;;;4.93;3.07;;;;;;;;;;5115162;28;20222;-76
2022/06/06 10:27:58;;;;;;;3.20;2.57;;;;;;;;;;5118976;28;20227;-75
2022/06/06 10:30:29;;;;;;;3.87;2.50;;;;;;;;;;5110648;28;20243;-69
2022/06/06 10:33:12;;;;;;;2.73;2.50;;;;;;;;;;5098695;28;20205;-69
2022/06/06 10:35:53;;;;;;;2.70;2.50;;;;;;;;;;5098245;28;20268;-69
2022/06/06 10:38:39;;;;;;;3.97;2.60;;;;;;;;;;5098275;28;20205;-70
2022/06/06 10:41:13;;;;;;;2.90;2.60;;;;;;;;;;5057549;28;20215;-68
2022/06/06 10:44:08;;;;;;;3.10;2.70;;;;;;;;;;5098367;28;20258;-70
2022/06/06 10:46:41;;;;;;;6.43;2.47;;;;;;;;;;5062313;28;20235;-70
2022/06/06 10:49:17;;;;;;;4.97;2.83;;;;;;;;;;5097630;28;20234;-68
2022/06/06 10:52:04;;;;;;;6.73;2.60;;;;;;;;;;5098420;28;20225;-70
2022/06/06 10:55:05;;;;;;;4.23;2.63;;;;;;;;;;5095903;28;20208;-70
2022/06/06 10:58:03;;;;;;;5.30;3.40;;;;;;;;;;5096448;28;20205;-69
2022/06/06 11:00:45;;;;;;;3.50;2.97;;;;;;;;;;5035603;28;20676;-70
2022/06/06 11:03:32;;;;;;;3.43;2.73;;;;;;;;;;5089567;28;20195;-70
2022/06/06 11:06:22;;;;;;;2.87;2.40;;;;;;;;;;5095455;28;20222;-69
2022/06/06 11:09:08;;;;;;;2.73;2.40;;;;;;;;;;5094414;28;20248;-67
2022/06/06 11:11:46;;;;;;;3.03;2.47;;;;;;;;;;5107395;28;20693;-68
2022/06/06 11:14:18;;;;;;;2.80;2.60;;;;;;;;;;5094873;28;20215;-67
2022/06/06 11:17:04;;;;;;;3.57;2.70;;;;;;;;;;5099941;28;20222;-69
2022/06/06 11:20:02;;;;;;;4.23;2.17;;;;;;;;;;5095636;28;20196;-71
2022/06/06 11:22:33;;;;;;;3.50;3.20;;;;;;;;;;5006463;28;20200;-69
2022/06/06 11:25:13;;;;;;;3.27;2.93;;;;;;;;;;5081166;28;20246;-69
2022/06/06 11:28:08;;;;;;;4.63;3.87;;;;;;;;;;5099754;28;20563;-69
2022/06/06 11:30:58;;;;;;;5.33;3.50;;;;;;;;;;5103227;28;20201;-72
2022/06/06 11:34:01;;;;;;;2.53;2.43;;;;;;;;;;5097535;28;20211;-72
2022/06/06 11:37:02;;;;;;;4.50;2.70;;;;;;;;;;5098994;28;20250;-72
2022/06/06 11:39:53;;;;;;;2.43;2.33;;;;;;;;;;5096837;28;20240;-72
2022/06/06 11:42:26;;;;;;;5.90;2.83;;;;;;;;;;5040023;28;20195;-74
2022/06/06 11:45:10;;;;;;;3.77;2.57;;;;;;;;;;5099068;28;20231;-72
2022/06/06 11:47:53;;;;;;;2.87;2.60;;;;;;;;;;5098750;28;20205;-72
2022/06/06 11:50:45;;;;;;;3.60;2.93;;;;;;;;;;5096933;28;20229;-71
2022/06/06 11:53:54;;;;;;;3.80;2.50;;;;;;;;;;5106287;28;20287;-72
2022/06/06 11:56:35;;;;;;;3.20;2.40;;;;;;;;;;5090108;28;20219;-72
2022/06/06 11:59:18;;;;;;;6.90;2.80;;;;;;;;;;5095284;28;20196;-72
2022/06/06 12:02:08;;;;;;;4.23;2.70;;;;;;;;;;5097067;28;20201;-73
2022/06/06 12:04:56;;;;;;;4.10;2.50;;;;;;;;;;5095604;28;20704;-72
2022/06/06 12:07:50;;;;;;;2.40;2.30;;;;;;;;;;5094348;28;20274;-72
2022/06/06 12:10:21;;;;;;;4.67;2.73;;;;;;;;;;5096822;28;20244;-71
2022/06/06 12:13:08;;;;;;;5.13;2.10;;;;;;;;;;5097011;28;20250;-72
2022/06/06 12:15:43;;;;;;;2.77;2.33;;;;;;;;;;5097279;28;20743;-72
2022/06/06 12:18:20;;;;;;;2.80;2.50;;;;;;;;;;5098569;28;20206;-72
2022/06/06 12:21:05;;;;;;;3.53;2.00;;;;;;;;;;5096565;28;20208;-72
2022/06/06 12:23:39;;;;;;;3.13;2.50;;;;;;;;;;5097506;28;20211;-72
2022/06/06 12:26:16;;;;;;;3.33;3.00;;;;;;;;;;5096695;28;20315;-71
2022/06/06 12:29:10;;;;;;;5.13;3.73;;;;;;;;;;5097009;28;20670;-71
2022/06/06 12:31:53;;;;;;;6.23;4.83;;;;;;;;;;5097321;28;20237;-73
2022/06/06 12:34:25;;;;;;;4.50;2.67;;;;;;;;;;5095842;28;20271;-73
2022/06/06 12:36:57;;;;;;;3.17;2.30;;;;;;;;;;5097399;28;20257;-73
2022/06/06 12:39:32;;;;;;;2.40;2.03;;;;;;;;;;5100985;28;20219;-72
2022/06/06 12:42:05;;;;;;;14.60;11.27;;;;;;;;;;5098442;28;20260;-71
2022/06/06 12:44:41;;;;;;;4.60;3.27;;;;;;;;;;5100482;28;20205;-69
2022/06/06 12:47:27;;;;;;;3.10;2.80;;;;;;;;;;5100530;28;20261;-70
2022/06/06 12:50:04;;;;;;;2.53;2.33;;;;;;;;;;5100306;28;20687;-70
2022/06/06 12:52:49;;;;;;;4.40;3.67;;;;;;;;;;5100662;28;20224;-71
2022/06/06 12:58:40;;;;;;;5.30;4.10;;;;;;;;;;5098214;28;20266;-72
2022/06/06 13:04:05;;;;;;;3.30;3.00;;;;;;;;;;5057048;28;20266;-71
2022/06/06 13:06:41;;;;;;;4.90;2.63;;;;;;;;;;5081879;28;20661;-71
2022/06/06 13:09:16;;;;;;;4.10;3.70;;;;;;;;;;5099968;28;20228;-71
2022/06/06 13:11:49;;;;;;;5.10;3.50;;;;;;;;;;5100304;28;20205;-71
2022/06/06 13:14:44;;;;;;;7.40;4.60;;;;;;;;;;5100061;28;20231;-71
2022/06/06 13:17:17;;;;;;;4.93;2.63;;;;;;;;;;5064495;28;20233;-71
2022/06/06 13:19:53;;;;;;;2.97;2.73;;;;;;;;;;5094893;28;20674;-71
2022/06/06 13:22:33;;;;;;;2.50;2.30;;;;;;;;;;5096819;28;20255;-72
2022/06/06 13:25:14;;;;;;;2.40;2.30;;;;;;;;;;5099674;28;20252;-72
2022/06/06 13:27:57;;;;;;;2.40;2.10;;;;;;;;;;5088226;28;20217;-71
2022/06/06 13:30:27;;;;;;;3.57;2.50;;;;;;;;;;5100562;28;20225;-73
2022/06/06 13:33:21;;;;;;;2.93;2.43;;;;;;;;;;5099930;28;20205;-75
2022/06/06 13:35:54;;;;;;;3.23;2.67;;;;;;;;;;5089940;28;20253;-71
2022/06/06 13:38:44;;;;;;;3.10;2.53;;;;;;;;;;5099050;28;20239;-73
2022/06/06 13:41:21;;;;;;;2.87;2.67;;;;;;;;;;5095612;28;20338;-72
2022/06/06 13:43:57;;;;;;;2.97;2.60;;;;;;;;;;5100694;28;20223;-72
2022/06/06 13:46:38;;;;;;;3.00;2.70;;;;;;;;;;5098854;28;20227;-71
2022/06/06 13:49:22;;;;;;;4.20;2.40;;;;;;;;;;5098369;28;20236;-72
2022/06/06 13:52:00;;;;;;;3.20;2.70;;;;;;;;;;5113748;28;20603;-71
2022/06/06 13:54:31;;;;;;;6.47;5.13;;;;;;;;;;5106175;28;20205;-71
2022/06/06 13:57:16;;;;;;;4.77;4.27;;;;;;;;;;5099184;28;20232;-71
2022/06/06 14:03:25;;;;;;;3.80;2.70;;;;;;;;;;5095917;28;20174;-72
2022/06/06 14:06:09;;;;;;;2.80;2.60;;;;;;;;;;5113310;28;20231;-72
2022/06/06 14:08:47;;;;;;;3.93;2.43;;;;;;;;;;5119223;28;20208;-72
2022/06/06 14:11:19;;;;;;;5.23;2.57;;;;;;;;;;5119382;28;20228;-72
2022/06/06 14:13:51;;;;;;;2.90;1.90;;;;;;;;;;5119483;28;20239;-72
2022/06/06 14:16:23;;;;;;;2.90;2.23;;;;;;;;;;5113120;28;20638;-72
2022/06/06 14:18:54;;;;;;;3.97;3.10;;;;;;;;;;5098369;28;20221;-72
2022/06/06 14:21:24;;;;;;;2.23;2.03;;;;;;;;;;5098440;28;20652;-72
2022/06/06 14:24:06;;;;;;;3.73;2.30;;;;;;;;;;5098351;28;20237;-72
2022/06/06 14:26:36;;;;;;;2.90;2.37;;;;;;;;;;5098423;28;20255;-72
2022/06/06 14:29:05;;;;;;;2.90;2.30;;;;;;;;;;5099806;27;20213;-72
2022/06/06 14:31:35;;;;;;;2.30;2.17;;;;;;;;;;5107007;28;20225;-76
2022/06/06 14:34:16;;;;;;;2.00;1.90;;;;;;;;;;5119017;28;20215;-67
2022/06/06 14:36:46;;;;;;;3.40;2.33;;;;;;;;;;5099141;28;20256;-72
2022/06/06 14:39:22;;;;;;;2.80;2.60;;;;;;;;;;5098361;28;20212;-72
2022/06/06 14:41:52;;;;;;;2.67;2.47;;;;;;;;;;5096723;28;20572;-73
2022/06/06 14:44:28;;;;;;;4.03;2.83;;;;;;;;;;5098557;28;20292;-73
2022/06/06 14:47:05;;;;;;;5.97;2.50;;;;;;;;;;5097816;28;20232;-73
2022/06/06 14:49:35;;;;;;;5.93;2.50;;;;;;;;;;5097691;28;20369;-72
2022/06/06 14:52:09;;;;;;;4.03;2.67;;;;;;;;;;5098209;28;20202;-73
2022/06/06 14:54:37;;;;;;;3.57;2.53;;;;;;;;;;5103091;28;20197;-73
2022/06/06 14:57:12;;;;;;;3.57;2.50;;;;;;;;;;5118978;28;20238;-73
2022/06/06 14:59:42;;;;;;;2.53;2.33;;;;;;;;;;5118602;28;20241;-74
2022/06/06 15:02:12;;;;;;;4.20;2.37;;;;;;;;;;5119234;28;20708;-73
2022/06/06 15:04:40;;;;;;;4.40;2.80;;;;;;;;;;5100029;28;20287;-73
2022/06/06 15:07:10;;;;;;;4.50;3.10;;;;;;;;;;5098213;28;20225;-73
2022/06/06 15:09:40;;;;;;;6.27;2.33;;;;;;;;;;5098082;28;20243;-73
2022/06/06 15:12:23;;;;;;;2.50;2.30;;;;;;;;;;5098317;28;20239;-73
2022/06/06 15:14:55;;;;;;;4.00;3.40;;;;;;;;;;5098150;28;20205;-73
2022/06/06 15:17:24;;;;;;;3.03;2.33;;;;;;;;;;5098039;28;20258;-74
2022/06/06 15:19:54;;;;;;;3.07;1.97;;;;;;;;;;5098607;28;20216;-73
2022/06/06 15:22:29;;;;;;;2.07;1.87;;;;;;;;;;5100480;28;20228;-73
2022/06/06 15:24:58;;;;;;;2.77;1.70;;;;;;;;;;5100871;28;20204;-73
2022/06/06 15:27:36;;;;;;;3.57;2.00;;;;;;;;;;5098232;28;20232;-73
2022/06/06 15:30:05;;;;;;;2.40;2.20;;;;;;;;;;5095389;28;20310;-74
2022/06/06 15:32:39;;;;;;;2.43;2.10;;;;;;;;;;5098948;28;20770;-74
2022/06/06 15:35:20;;;;;;;2.23;2.00;;;;;;;;;;5097772;28;20225;-74
2022/06/06 15:37:52;;;;;;;3.63;2.20;;;;;;;;;;5097469;28;20262;-73
2022/06/06 15:40:26;;;;;;;2.40;2.03;;;;;;;;;;5094354;28;20254;-73
2022/06/06 15:43:01;;;;;;;2.03;1.83;;;;;;;;;;5097692;28;20205;-73
2022/06/06 15:45:35;;;;;;;5.13;2.20;;;;;;;;;;5097234;28;20229;-74
2022/06/06 15:48:05;;;;;;;4.33;3.03;;;;;;;;;;5097074;28;20236;-65
2022/06/06 15:50:41;;;;;;;2.23;1.93;;;;;;;;;;5096360;28;20270;-67
2022/06/06 15:53:24;;;;;;;3.60;2.27;;;;;;;;;;5097408;28;20609;-66
2022/06/06 15:55:59;;;;;;;2.50;2.30;;;;;;;;;;5095502;28;20230;-67
2022/06/06 15:58:36;;;;;;;2.50;2.30;;;;;;;;;;5099488;28;20204;-68
2022/06/06 16:01:08;;;;;;;2.80;2.20;;;;;;;;;;5109152;28;20196;-69
2022/06/06 16:03:47;;;;;;;2.50;2.30;;;;;;;;;;5106513;28;20202;-69
2022/06/06 16:06:16;;;;;;;3.17;2.17;;;;;;;;;;5098376;28;20229;-66
2022/06/06 16:08:49;;;;;;;3.10;2.30;;;;;;;;;;5094007;28;20225;-72
2022/06/06 16:11:27;;;;;;;4.67;2.13;;;;;;;;;;5096691;28;20624;-68